Marshall Don Hunter Sr Airport Marshall US
ICAO: PADM
IATA:
Category: Medium
Scheduled Services:

Elevation: 103 ft
TransAlt. 18000 ft.

Airport Communications:
ANCHORAGE CNTR:132.3
CTAF:122.9
ST MARYS RDO:124

PADM Zoom In..

Runways:

(A) RW 07 length 3200 ft width 100 ft
---- / hdg 70

(B) RW 25 length 3200 ft width 100 ft
---- / hdg 250

Location; PADM
Day. 20 / Time. 17.02 Zulu
* Altimeter: 29.60
* Temperature: 06° c. 42.8°f.
* Wind from: 080° Speed 14 kn.
Dewpoint: 04° c.
Visibility: 10 Statute Miles.
Clouds: Broken 3700 ft.
Clouds: Overcast 6000 ft.

PADM 201702Z AUTO 08014KT 10SM BKN037 OVC060 06/04 A2960 RMK AO2 SLP033 T00560039


Wind From 080°
Speed 14 kn.

 
 
jpsmedia.com for Web Design SOUNDCLOUD worldairports.se 2018   terms of use